sensor_id;sensor_type;location;lat;lon;timestamp;temperature;humidity
49731;DHT22;35622;52.008;5.426;2024-02-28T00:01:37;7.60;92.70
49731;DHT22;35622;52.008;5.426;2024-02-28T00:04:03;7.70;92.50
49731;DHT22;35622;52.008;5.426;2024-02-28T00:06:29;7.60;92.60
49731;DHT22;35622;52.008;5.426;2024-02-28T00:08:54;7.60;92.60
49731;DHT22;35622;52.008;5.426;2024-02-28T00:11:20;7.60;92.50
49731;DHT22;35622;52.008;5.426;2024-02-28T00:13:46;7.60;92.50
49731;DHT22;35622;52.008;5.426;2024-02-28T00:16:12;7.60;92.60
49731;DHT22;35622;52.008;5.426;2024-02-28T00:18:37;7.60;92.80
49731;DHT22;35622;52.008;5.426;2024-02-28T00:21:03;7.60;92.50
49731;DHT22;35622;52.008;5.426;2024-02-28T00:23:29;7.60;92.60
49731;DHT22;35622;52.008;5.426;2024-02-28T00:25:56;7.60;92.90
49731;DHT22;35622;52.008;5.426;2024-02-28T00:28:21;7.60;93.10
49731;DHT22;35622;52.008;5.426;2024-02-28T00:30:47;7.60;93.50
49731;DHT22;35622;52.008;5.426;2024-02-28T00:33:12;7.50;93.70
49731;DHT22;35622;52.008;5.426;2024-02-28T00:35:39;7.50;93.70
49731;DHT22;35622;52.008;5.426;2024-02-28T00:38:05;7.50;93.60
49731;DHT22;35622;52.008;5.426;2024-02-28T00:40:31;7.50;93.50
49731;DHT22;35622;52.008;5.426;2024-02-28T00:42:57;7.50;93.00
49731;DHT22;35622;52.008;5.426;2024-02-28T00:45:23;7.50;92.90
49731;DHT22;35622;52.008;5.426;2024-02-28T00:47:49;7.50;92.90
49731;DHT22;35622;52.008;5.426;2024-02-28T00:50:14;7.40;93.10
49731;DHT22;35622;52.008;5.426;2024-02-28T00:52:40;7.40;93.20
49731;DHT22;35622;52.008;5.426;2024-02-28T00:55:06;7.50;92.80
49731;DHT22;35622;52.008;5.426;2024-02-28T00:57:32;7.40;92.60
49731;DHT22;35622;52.008;5.426;2024-02-28T00:59:58;7.40;93.20
49731;DHT22;35622;52.008;5.426;2024-02-28T01:02:24;7.30;93.00
49731;DHT22;35622;52.008;5.426;2024-02-28T01:04:50;7.30;93.10
49731;DHT22;35622;52.008;5.426;2024-02-28T01:07:15;7.30;93.20
49731;DHT22;35622;52.008;5.426;2024-02-28T01:09:41;7.30;93.10
49731;DHT22;35622;52.008;5.426;2024-02-28T01:12:06;7.40;93.40
49731;DHT22;35622;52.008;5.426;2024-02-28T01:14:32;7.40;93.50
49731;DHT22;35622;52.008;5.426;2024-02-28T01:16:58;7.30;93.60
49731;DHT22;35622;52.008;5.426;2024-02-28T01:19:24;7.30;93.80
49731;DHT22;35622;52.008;5.426;2024-02-28T01:21:49;7.30;94.00
49731;DHT22;35622;52.008;5.426;2024-02-28T01:24:15;7.30;93.80
49731;DHT22;35622;52.008;5.426;2024-02-28T01:26:40;7.30;94.00
49731;DHT22;35622;52.008;5.426;2024-02-28T01:29:06;7.40;93.90
49731;DHT22;35622;52.008;5.426;2024-02-28T01:31:32;7.40;93.80
49731;DHT22;35622;52.008;5.426;2024-02-28T01:33:58;7.40;93.80
49731;DHT22;35622;52.008;5.426;2024-02-28T01:36:23;7.50;94.10
49731;DHT22;35622;52.008;5.426;2024-02-28T01:38:49;7.50;93.50
49731;DHT22;35622;52.008;5.426;2024-02-28T01:41:14;7.50;93.30
49731;DHT22;35622;52.008;5.426;2024-02-28T01:43:40;7.60;94.00
49731;DHT22;35622;52.008;5.426;2024-02-28T01:46:27;7.60;93.50
49731;DHT22;35622;52.008;5.426;2024-02-28T01:48:54;7.50;93.50
49731;DHT22;35622;52.008;5.426;2024-02-28T01:51:24;7.50;93.60
49731;DHT22;35622;52.008;5.426;2024-02-28T01:53:52;7.50;93.80
49731;DHT22;35622;52.008;5.426;2024-02-28T01:56:19;7.50;93.50
49731;DHT22;35622;52.008;5.426;2024-02-28T01:58:48;7.30;93.60
49731;DHT22;35622;52.008;5.426;2024-02-28T02:01:15;7.40;93.40
49731;DHT22;35622;52.008;5.426;2024-02-28T02:03:42;7.50;93.30
49731;DHT22;35622;52.008;5.426;2024-02-28T02:06:08;7.40;93.80
49731;DHT22;35622;52.008;5.426;2024-02-28T02:08:34;7.30;93.50
49731;DHT22;35622;52.008;5.426;2024-02-28T02:11:00;7.30;93.40
49731;DHT22;35622;52.008;5.426;2024-02-28T02:13:25;7.30;93.40
49731;DHT22;35622;52.008;5.426;2024-02-28T02:15:51;7.20;93.60
49731;DHT22;35622;52.008;5.426;2024-02-28T02:18:17;7.20;93.80
49731;DHT22;35622;52.008;5.426;2024-02-28T02:20:44;7.20;93.70
49731;DHT22;35622;52.008;5.426;2024-02-28T02:23:12;7.20;93.60
49731;DHT22;35622;52.008;5.426;2024-02-28T02:25:48;7.20;93.70
49731;DHT22;35622;52.008;5.426;2024-02-28T02:28:14;7.20;94.00
49731;DHT22;35622;52.008;5.426;2024-02-28T02:30:40;7.20;94.10
49731;DHT22;35622;52.008;5.426;2024-02-28T02:33:09;7.20;94.10
49731;DHT22;35622;52.008;5.426;2024-02-28T02:35:35;7.20;94.10
49731;DHT22;35622;52.008;5.426;2024-02-28T02:38:00;7.30;94.30
49731;DHT22;35622;52.008;5.426;2024-02-28T02:40:26;7.30;94.20
49731;DHT22;35622;52.008;5.426;2024-02-28T02:42:52;7.30;94.10
49731;DHT22;35622;52.008;5.426;2024-02-28T02:45:17;7.40;94.20
49731;DHT22;35622;52.008;5.426;2024-02-28T02:47:43;7.30;94.00
49731;DHT22;35622;52.008;5.426;2024-02-28T02:50:12;7.30;94.40
49731;DHT22;35622;52.008;5.426;2024-02-28T02:52:38;7.30;94.10
49731;DHT22;35622;52.008;5.426;2024-02-28T02:55:04;7.40;93.70
49731;DHT22;35622;52.008;5.426;2024-02-28T02:57:31;7.30;93.70
49731;DHT22;35622;52.008;5.426;2024-02-28T02:59:57;7.40;93.60
49731;DHT22;35622;52.008;5.426;2024-02-28T03:02:23;7.30;93.60
49731;DHT22;35622;52.008;5.426;2024-02-28T03:04:48;7.30;93.60
49731;DHT22;35622;52.008;5.426;2024-02-28T03:07:14;7.30;93.40
49731;DHT22;35622;52.008;5.426;2024-02-28T03:09:40;7.20;93.50
49731;DHT22;35622;52.008;5.426;2024-02-28T03:12:05;7.10;93.30
49731;DHT22;35622;52.008;5.426;2024-02-28T03:14:31;7.10;93.50
49731;DHT22;35622;52.008;5.426;2024-02-28T03:16:56;7.00;93.60
49731;DHT22;35622;52.008;5.426;2024-02-28T03:19:22;7.10;93.50
49731;DHT22;35622;52.008;5.426;2024-02-28T03:21:48;7.20;93.20
49731;DHT22;35622;52.008;5.426;2024-02-28T03:24:13;7.00;93.00
49731;DHT22;35622;52.008;5.426;2024-02-28T03:26:39;7.10;92.80
49731;DHT22;35622;52.008;5.426;2024-02-28T03:29:05;7.00;93.00
49731;DHT22;35622;52.008;5.426;2024-02-28T03:31:30;6.90;93.00
49731;DHT22;35622;52.008;5.426;2024-02-28T03:33:56;6.90;92.80
49731;DHT22;35622;52.008;5.426;2024-02-28T03:36:21;6.90;92.40
49731;DHT22;35622;52.008;5.426;2024-02-28T03:38:47;6.70;92.80
49731;DHT22;35622;52.008;5.426;2024-02-28T03:41:12;6.70;92.80
49731;DHT22;35622;52.008;5.426;2024-02-28T03:43:39;6.60;92.70
49731;DHT22;35622;52.008;5.426;2024-02-28T03:46:05;6.60;92.70
49731;DHT22;35622;52.008;5.426;2024-02-28T03:48:30;6.60;92.70
49731;DHT22;35622;52.008;5.426;2024-02-28T03:50:56;6.50;92.90
49731;DHT22;35622;52.008;5.426;2024-02-28T03:53:21;6.50;93.10
49731;DHT22;35622;52.008;5.426;2024-02-28T03:55:47;6.40;93.10
49731;DHT22;35622;52.008;5.426;2024-02-28T03:58:13;6.40;93.30
49731;DHT22;35622;52.008;5.426;2024-02-28T04:00:38;6.50;93.40
49731;DHT22;35622;52.008;5.426;2024-02-28T04:03:05;6.50;93.60
49731;DHT22;35622;52.008;5.426;2024-02-28T04:05:31;6.50;93.70
49731;DHT22;35622;52.008;5.426;2024-02-28T04:07:56;6.40;93.70
49731;DHT22;35622;52.008;5.426;2024-02-28T04:10:22;6.50;93.90
49731;DHT22;35622;52.008;5.426;2024-02-28T04:12:48;6.50;93.70
49731;DHT22;35622;52.008;5.426;2024-02-28T04:15:14;6.50;93.90
49731;DHT22;35622;52.008;5.426;2024-02-28T04:17:40;6.50;93.90
49731;DHT22;35622;52.008;5.426;2024-02-28T04:20:14;6.50;93.90
49731;DHT22;35622;52.008;5.426;2024-02-28T04:22:40;6.50;93.80
49731;DHT22;35622;52.008;5.426;2024-02-28T04:25:08;6.60;94.10
49731;DHT22;35622;52.008;5.426;2024-02-28T04:27:37;6.60;94.00
49731;DHT22;35622;52.008;5.426;2024-02-28T04:30:04;6.70;93.90
49731;DHT22;35622;52.008;5.426;2024-02-28T04:32:29;6.70;93.90
49731;DHT22;35622;52.008;5.426;2024-02-28T04:34:55;6.70;93.70
49731;DHT22;35622;52.008;5.426;2024-02-28T04:37:21;6.70;93.90
49731;DHT22;35622;52.008;5.426;2024-02-28T04:39:46;6.70;93.50
49731;DHT22;35622;52.008;5.426;2024-02-28T04:42:13;6.50;93.80
49731;DHT22;35622;52.008;5.426;2024-02-28T04:44:38;6.60;94.10
49731;DHT22;35622;52.008;5.426;2024-02-28T04:47:04;6.60;94.10
49731;DHT22;35622;52.008;5.426;2024-02-28T04:49:30;6.70;94.40
49731;DHT22;35622;52.008;5.426;2024-02-28T04:51:56;6.70;94.60
49731;DHT22;35622;52.008;5.426;2024-02-28T04:54:21;6.80;94.40
49731;DHT22;35622;52.008;5.426;2024-02-28T04:56:47;6.80;94.40
49731;DHT22;35622;52.008;5.426;2024-02-28T04:59:13;6.90;94.50
49731;DHT22;35622;52.008;5.426;2024-02-28T05:01:39;7.00;94.20
49731;DHT22;35622;52.008;5.426;2024-02-28T05:04:07;7.00;94.20
49731;DHT22;35622;52.008;5.426;2024-02-28T05:06:32;7.10;94.10
49731;DHT22;35622;52.008;5.426;2024-02-28T05:08:58;7.10;94.60
49731;DHT22;35622;52.008;5.426;2024-02-28T05:11:23;7.10;94.40
49731;DHT22;35622;52.008;5.426;2024-02-28T05:13:49;7.20;94.60
49731;DHT22;35622;52.008;5.426;2024-02-28T05:16:15;7.30;94.70
49731;DHT22;35622;52.008;5.426;2024-02-28T05:18:41;7.40;94.80
49731;DHT22;35622;52.008;5.426;2024-02-28T05:21:07;7.50;94.70
49731;DHT22;35622;52.008;5.426;2024-02-28T05:23:33;7.50;94.60
49731;DHT22;35622;52.008;5.426;2024-02-28T05:25:59;7.50;94.60
49731;DHT22;35622;52.008;5.426;2024-02-28T05:28:38;7.60;94.70
49731;DHT22;35622;52.008;5.426;2024-02-28T05:31:24;7.60;94.60
49731;DHT22;35622;52.008;5.426;2024-02-28T05:33:54;7.70;94.90
49731;DHT22;35622;52.008;5.426;2024-02-28T05:36:26;7.70;94.80
49731;DHT22;35622;52.008;5.426;2024-02-28T05:38:52;7.70;94.60
49731;DHT22;35622;52.008;5.426;2024-02-28T05:41:18;7.70;94.50
49731;DHT22;35622;52.008;5.426;2024-02-28T05:43:45;7.80;94.30
49731;DHT22;35622;52.008;5.426;2024-02-28T05:46:11;7.80;94.30
49731;DHT22;35622;52.008;5.426;2024-02-28T05:48:37;7.90;94.30
49731;DHT22;35622;52.008;5.426;2024-02-28T05:51:02;7.90;94.30
49731;DHT22;35622;52.008;5.426;2024-02-28T05:53:29;7.90;94.50
49731;DHT22;35622;52.008;5.426;2024-02-28T05:55:58;7.90;94.60
49731;DHT22;35622;52.008;5.426;2024-02-28T05:58:23;8.00;94.50
49731;DHT22;35622;52.008;5.426;2024-02-28T06:00:51;7.90;94.60
49731;DHT22;35622;52.008;5.426;2024-02-28T06:03:16;8.00;94.60
49731;DHT22;35622;52.008;5.426;2024-02-28T06:05:42;8.00;94.60
49731;DHT22;35622;52.008;5.426;2024-02-28T06:08:08;8.00;94.60
49731;DHT22;35622;52.008;5.426;2024-02-28T06:10:33;8.10;94.30
49731;DHT22;35622;52.008;5.426;2024-02-28T06:12:59;8.00;94.30
49731;DHT22;35622;52.008;5.426;2024-02-28T06:15:25;8.10;94.40
49731;DHT22;35622;52.008;5.426;2024-02-28T06:17:51;8.10;94.40
49731;DHT22;35622;52.008;5.426;2024-02-28T06:20:17;8.10;94.40
49731;DHT22;35622;52.008;5.426;2024-02-28T06:22:42;8.10;94.60
49731;DHT22;35622;52.008;5.426;2024-02-28T06:25:08;8.20;94.70
49731;DHT22;35622;52.008;5.426;2024-02-28T06:27:43;8.20;94.60
49731;DHT22;35622;52.008;5.426;2024-02-28T06:30:09;8.20;94.50
49731;DHT22;35622;52.008;5.426;2024-02-28T06:32:34;8.10;94.70
49731;DHT22;35622;52.008;5.426;2024-02-28T06:35:00;8.10;94.80
49731;DHT22;35622;52.008;5.426;2024-02-28T06:37:25;8.10;95.00
49731;DHT22;35622;52.008;5.426;2024-02-28T06:39:51;8.10;95.10
49731;DHT22;35622;52.008;5.426;2024-02-28T06:42:17;8.20;95.00
49731;DHT22;35622;52.008;5.426;2024-02-28T06:44:42;8.20;94.90
49731;DHT22;35622;52.008;5.426;2024-02-28T06:47:08;8.20;95.10
49731;DHT22;35622;52.008;5.426;2024-02-28T06:49:34;8.20;95.10
49731;DHT22;35622;52.008;5.426;2024-02-28T06:52:00;8.30;95.20
49731;DHT22;35622;52.008;5.426;2024-02-28T06:54:27;8.30;95.20
49731;DHT22;35622;52.008;5.426;2024-02-28T06:56:53;8.40;95.30
49731;DHT22;35622;52.008;5.426;2024-02-28T06:59:19;8.40;95.30
49731;DHT22;35622;52.008;5.426;2024-02-28T07:01:44;8.50;95.20
49731;DHT22;35622;52.008;5.426;2024-02-28T07:04:10;8.50;95.20
49731;DHT22;35622;52.008;5.426;2024-02-28T07:06:35;8.40;95.20
49731;DHT22;35622;52.008;5.426;2024-02-28T07:09:01;8.40;95.30
49731;DHT22;35622;52.008;5.426;2024-02-28T07:11:27;8.50;95.40
49731;DHT22;35622;52.008;5.426;2024-02-28T07:13:52;8.60;95.40
49731;DHT22;35622;52.008;5.426;2024-02-28T07:16:18;8.60;95.20
49731;DHT22;35622;52.008;5.426;2024-02-28T07:18:43;8.50;95.20
49731;DHT22;35622;52.008;5.426;2024-02-28T07:21:09;8.60;95.10
49731;DHT22;35622;52.008;5.426;2024-02-28T07:23:34;8.60;95.10
49731;DHT22;35622;52.008;5.426;2024-02-28T07:26:00;8.50;95.10
49731;DHT22;35622;52.008;5.426;2024-02-28T07:28:26;8.60;95.10
49731;DHT22;35622;52.008;5.426;2024-02-28T07:30:51;8.70;95.00
49731;DHT22;35622;52.008;5.426;2024-02-28T07:33:17;8.50;95.00
49731;DHT22;35622;52.008;5.426;2024-02-28T07:35:46;8.70;95.20
49731;DHT22;35622;52.008;5.426;2024-02-28T07:38:12;8.70;95.10
49731;DHT22;35622;52.008;5.426;2024-02-28T07:40:38;8.80;94.90
49731;DHT22;35622;52.008;5.426;2024-02-28T07:43:03;8.80;95.00
49731;DHT22;35622;52.008;5.426;2024-02-28T07:45:29;8.80;95.00
49731;DHT22;35622;52.008;5.426;2024-02-28T07:47:55;8.80;95.10
49731;DHT22;35622;52.008;5.426;2024-02-28T07:50:20;8.80;95.00
49731;DHT22;35622;52.008;5.426;2024-02-28T07:52:46;8.80;95.00
49731;DHT22;35622;52.008;5.426;2024-02-28T07:55:11;8.80;95.30
49731;DHT22;35622;52.008;5.426;2024-02-28T07:57:37;8.90;95.10
49731;DHT22;35622;52.008;5.426;2024-02-28T08:00:03;8.80;95.30
49731;DHT22;35622;52.008;5.426;2024-02-28T08:02:29;8.70;95.30
49731;DHT22;35622;52.008;5.426;2024-02-28T08:04:55;8.80;95.90
49731;DHT22;35622;52.008;5.426;2024-02-28T08:07:21;8.80;95.30
49731;DHT22;35622;52.008;5.426;2024-02-28T08:09:46;8.70;95.40
49731;DHT22;35622;52.008;5.426;2024-02-28T08:12:12;8.80;95.50
49731;DHT22;35622;52.008;5.426;2024-02-28T08:14:38;8.60;95.70
49731;DHT22;35622;52.008;5.426;2024-02-28T08:17:03;8.60;95.90
49731;DHT22;35622;52.008;5.426;2024-02-28T08:19:29;8.70;95.50
49731;DHT22;35622;52.008;5.426;2024-02-28T08:21:55;8.70;95.70
49731;DHT22;35622;52.008;5.426;2024-02-28T08:24:20;8.80;95.70
49731;DHT22;35622;52.008;5.426;2024-02-28T08:26:46;8.80;95.40
49731;DHT22;35622;52.008;5.426;2024-02-28T08:29:12;9.00;95.40
49731;DHT22;35622;52.008;5.426;2024-02-28T08:31:44;8.90;95.40
49731;DHT22;35622;52.008;5.426;2024-02-28T08:34:09;8.70;95.40
49731;DHT22;35622;52.008;5.426;2024-02-28T08:36:35;8.70;95.60
49731;DHT22;35622;52.008;5.426;2024-02-28T08:39:02;8.90;95.50
49731;DHT22;35622;52.008;5.426;2024-02-28T08:41:31;9.00;95.60
49731;DHT22;35622;52.008;5.426;2024-02-28T08:43:56;9.10;96.00
49731;DHT22;35622;52.008;5.426;2024-02-28T08:46:22;9.30;96.20
49731;DHT22;35622;52.008;5.426;2024-02-28T08:48:47;9.30;96.00
49731;DHT22;35622;52.008;5.426;2024-02-28T08:51:13;9.20;95.90
49731;DHT22;35622;52.008;5.426;2024-02-28T08:53:39;9.20;96.20
49731;DHT22;35622;52.008;5.426;2024-02-28T08:56:05;9.30;96.00
49731;DHT22;35622;52.008;5.426;2024-02-28T08:58:30;9.50;96.00
49731;DHT22;35622;52.008;5.426;2024-02-28T09:00:56;9.60;95.80
49731;DHT22;35622;52.008;5.426;2024-02-28T09:03:22;9.60;95.70
49731;DHT22;35622;52.008;5.426;2024-02-28T09:05:48;9.70;95.70
49731;DHT22;35622;52.008;5.426;2024-02-28T09:08:14;9.80;95.70
49731;DHT22;35622;52.008;5.426;2024-02-28T09:10:39;9.90;95.30
49731;DHT22;35622;52.008;5.426;2024-02-28T09:13:05;9.70;95.20
49731;DHT22;35622;52.008;5.426;2024-02-28T09:15:32;9.80;95.20
49731;DHT22;35622;52.008;5.426;2024-02-28T09:17:58;9.70;95.30
49731;DHT22;35622;52.008;5.426;2024-02-28T09:20:24;9.90;95.50
49731;DHT22;35622;52.008;5.426;2024-02-28T09:22:49;9.90;95.30
49731;DHT22;35622;52.008;5.426;2024-02-28T09:25:15;9.90;95.40
49731;DHT22;35622;52.008;5.426;2024-02-28T09:27:43;9.90;95.40
49731;DHT22;35622;52.008;5.426;2024-02-28T09:30:09;9.90;95.20
49731;DHT22;35622;52.008;5.426;2024-02-28T09:32:35;10.00;95.50
49731;DHT22;35622;52.008;5.426;2024-02-28T09:35:03;10.00;95.40
49731;DHT22;35622;52.008;5.426;2024-02-28T09:37:29;10.00;95.10
49731;DHT22;35622;52.008;5.426;2024-02-28T09:39:56;10.30;95.50
49731;DHT22;35622;52.008;5.426;2024-02-28T09:42:22;10.50;95.40
49731;DHT22;35622;52.008;5.426;2024-02-28T09:44:48;10.70;95.10
49731;DHT22;35622;52.008;5.426;2024-02-28T09:47:13;10.60;94.30
49731;DHT22;35622;52.008;5.426;2024-02-28T09:49:42;10.60;94.40
49731;DHT22;35622;52.008;5.426;2024-02-28T09:52:08;10.50;94.40
49731;DHT22;35622;52.008;5.426;2024-02-28T09:54:33;10.60;94.70
49731;DHT22;35622;52.008;5.426;2024-02-28T09:56:59;10.70;94.60
49731;DHT22;35622;52.008;5.426;2024-02-28T09:59:25;10.70;95.00
49731;DHT22;35622;52.008;5.426;2024-02-28T10:01:57;11.00;94.60
49731;DHT22;35622;52.008;5.426;2024-02-28T10:04:25;11.00;93.80
49731;DHT22;35622;52.008;5.426;2024-02-28T10:06:51;10.60;93.90
49731;DHT22;35622;52.008;5.426;2024-02-28T10:09:17;10.80;95.40
49731;DHT22;35622;52.008;5.426;2024-02-28T10:11:42;11.00;95.20
49731;DHT22;35622;52.008;5.426;2024-02-28T10:14:12;11.30;94.60
49731;DHT22;35622;52.008;5.426;2024-02-28T10:16:42;11.40;94.20
49731;DHT22;35622;52.008;5.426;2024-02-28T10:19:08;11.50;93.60
49731;DHT22;35622;52.008;5.426;2024-02-28T10:21:33;11.40;93.10
49731;DHT22;35622;52.008;5.426;2024-02-28T10:23:59;11.30;93.70
49731;DHT22;35622;52.008;5.426;2024-02-28T10:26:25;11.20;93.30
49731;DHT22;35622;52.008;5.426;2024-02-28T10:28:52;11.20;93.50
49731;DHT22;35622;52.008;5.426;2024-02-28T10:31:17;11.00;94.10
49731;DHT22;35622;52.008;5.426;2024-02-28T10:33:43;11.00;94.10
49731;DHT22;35622;52.008;5.426;2024-02-28T10:36:09;11.10;94.50
49731;DHT22;35622;52.008;5.426;2024-02-28T10:38:35;11.30;94.90
49731;DHT22;35622;52.008;5.426;2024-02-28T10:41:02;11.40;94.30
49731;DHT22;35622;52.008;5.426;2024-02-28T10:43:28;11.50;93.70
49731;DHT22;35622;52.008;5.426;2024-02-28T10:45:56;11.50;94.00
49731;DHT22;35622;52.008;5.426;2024-02-28T10:48:24;11.60;94.50
49731;DHT22;35622;52.008;5.426;2024-02-28T10:50:50;11.60;94.30
49731;DHT22;35622;52.008;5.426;2024-02-28T10:53:20;11.70;93.70
49731;DHT22;35622;52.008;5.426;2024-02-28T10:55:48;11.80;94.20
49731;DHT22;35622;52.008;5.426;2024-02-28T10:58:14;12.00;93.40
49731;DHT22;35622;52.008;5.426;2024-02-28T11:00:42;12.10;93.30
49731;DHT22;35622;52.008;5.426;2024-02-28T11:03:11;12.30;93.40
49731;DHT22;35622;52.008;5.426;2024-02-28T11:05:44;12.30;93.00
49731;DHT22;35622;52.008;5.426;2024-02-28T11:08:23;12.10;93.40
49731;DHT22;35622;52.008;5.426;2024-02-28T11:11:02;12.20;93.50
49731;DHT22;35622;52.008;5.426;2024-02-28T11:13:29;12.30;93.10
49731;DHT22;35622;52.008;5.426;2024-02-28T11:16:09;12.40;93.40
49731;DHT22;35622;52.008;5.426;2024-02-28T11:18:35;12.20;92.50
49731;DHT22;35622;52.008;5.426;2024-02-28T11:21:01;12.20;92.90
49731;DHT22;35622;52.008;5.426;2024-02-28T11:23:35;12.30;93.20
49731;DHT22;35622;52.008;5.426;2024-02-28T11:26:03;12.50;93.20
49731;DHT22;35622;52.008;5.426;2024-02-28T11:28:29;12.60;92.70
49731;DHT22;35622;52.008;5.426;2024-02-28T11:30:54;12.60;93.30
49731;DHT22;35622;52.008;5.426;2024-02-28T11:33:20;12.30;93.20
49731;DHT22;35622;52.008;5.426;2024-02-28T11:35:56;12.30;93.50
49731;DHT22;35622;52.008;5.426;2024-02-28T11:38:27;12.30;93.70
49731;DHT22;35622;52.008;5.426;2024-02-28T11:40:53;12.60;93.50
49731;DHT22;35622;52.008;5.426;2024-02-28T11:43:21;12.60;93.40
49731;DHT22;35622;52.008;5.426;2024-02-28T11:45:46;12.70;93.60
49731;DHT22;35622;52.008;5.426;2024-02-28T11:48:15;12.80;93.70
49731;DHT22;35622;52.008;5.426;2024-02-28T11:50:41;13.00;92.60
49731;DHT22;35622;52.008;5.426;2024-02-28T11:53:07;12.80;92.60
49731;DHT22;35622;52.008;5.426;2024-02-28T11:55:33;12.70;92.50
49731;DHT22;35622;52.008;5.426;2024-02-28T11:57:59;12.90;92.40
49731;DHT22;35622;52.008;5.426;2024-02-28T12:00:25;12.80;92.70
49731;DHT22;35622;52.008;5.426;2024-02-28T12:02:51;12.80;92.80
49731;DHT22;35622;52.008;5.426;2024-02-28T12:05:18;12.70;92.50
49731;DHT22;35622;52.008;5.426;2024-02-28T12:07:45;12.60;93.30
49731;DHT22;35622;52.008;5.426;2024-02-28T12:10:10;12.50;93.00
49731;DHT22;35622;52.008;5.426;2024-02-28T12:12:38;12.40;93.40
49731;DHT22;35622;52.008;5.426;2024-02-28T12:15:05;12.50;93.80
49731;DHT22;35622;52.008;5.426;2024-02-28T12:17:31;12.70;93.70
49731;DHT22;35622;52.008;5.426;2024-02-28T12:20:00;12.90;93.80
49731;DHT22;35622;52.008;5.426;2024-02-28T12:22:26;13.20;93.40
49731;DHT22;35622;52.008;5.426;2024-02-28T12:24:52;13.40;93.20
49731;DHT22;35622;52.008;5.426;2024-02-28T12:27:17;13.40;93.30
49731;DHT22;35622;52.008;5.426;2024-02-28T12:29:43;13.50;92.60
49731;DHT22;35622;52.008;5.426;2024-02-28T12:32:09;13.60;92.70
49731;DHT22;35622;52.008;5.426;2024-02-28T12:34:34;13.70;91.80
49731;DHT22;35622;52.008;5.426;2024-02-28T12:37:01;13.30;92.30
49731;DHT22;35622;52.008;5.426;2024-02-28T12:39:26;13.30;92.90
49731;DHT22;35622;52.008;5.426;2024-02-28T12:41:52;13.50;93.00
49731;DHT22;35622;52.008;5.426;2024-02-28T12:44:18;13.60;92.00
49731;DHT22;35622;52.008;5.426;2024-02-28T12:46:43;13.70;92.30
49731;DHT22;35622;52.008;5.426;2024-02-28T12:49:09;13.50;92.60
49731;DHT22;35622;52.008;5.426;2024-02-28T12:51:40;13.40;93.00
49731;DHT22;35622;52.008;5.426;2024-02-28T12:54:06;13.50;93.30
49731;DHT22;35622;52.008;5.426;2024-02-28T12:56:33;13.60;92.60
49731;DHT22;35622;52.008;5.426;2024-02-28T12:58:59;13.60;92.90
49731;DHT22;35622;52.008;5.426;2024-02-28T13:01:26;13.60;92.70
49731;DHT22;35622;52.008;5.426;2024-02-28T13:03:51;13.60;92.20
49731;DHT22;35622;52.008;5.426;2024-02-28T13:06:18;13.70;92.30
49731;DHT22;35622;52.008;5.426;2024-02-28T13:08:43;13.60;91.90
49731;DHT22;35622;52.008;5.426;2024-02-28T13:11:09;13.50;92.10
49731;DHT22;35622;52.008;5.426;2024-02-28T13:13:35;13.50;92.20
49731;DHT22;35622;52.008;5.426;2024-02-28T13:16:01;13.30;92.30
49731;DHT22;35622;52.008;5.426;2024-02-28T13:18:28;13.30;92.70
49731;DHT22;35622;52.008;5.426;2024-02-28T13:20:53;13.40;92.80
49731;DHT22;35622;52.008;5.426;2024-02-28T13:23:19;13.30;92.40
49731;DHT22;35622;52.008;5.426;2024-02-28T13:25:45;13.30;93.20
49731;DHT22;35622;52.008;5.426;2024-02-28T13:28:10;13.40;93.00
49731;DHT22;35622;52.008;5.426;2024-02-28T13:30:36;13.50;93.00
49731;DHT22;35622;52.008;5.426;2024-02-28T13:33:03;13.70;92.40
49731;DHT22;35622;52.008;5.426;2024-02-28T13:35:29;13.90;92.30
49731;DHT22;35622;52.008;5.426;2024-02-28T13:37:56;13.90;91.70
49731;DHT22;35622;52.008;5.426;2024-02-28T13:40:28;14.10;92.20
49731;DHT22;35622;52.008;5.426;2024-02-28T13:42:53;14.00;92.10
49731;DHT22;35622;52.008;5.426;2024-02-28T13:45:19;14.30;92.30
49731;DHT22;35622;52.008;5.426;2024-02-28T13:47:45;14.60;91.20
49731;DHT22;35622;52.008;5.426;2024-02-28T13:50:11;14.30;91.10
49731;DHT22;35622;52.008;5.426;2024-02-28T13:52:36;14.30;90.90
49731;DHT22;35622;52.008;5.426;2024-02-28T13:55:02;14.30;90.60
49731;DHT22;35622;52.008;5.426;2024-02-28T13:57:28;14.20;91.10
49731;DHT22;35622;52.008;5.426;2024-02-28T13:59:54;14.10;91.10
49731;DHT22;35622;52.008;5.426;2024-02-28T14:02:23;14.20;91.00
49731;DHT22;35622;52.008;5.426;2024-02-28T14:04:52;14.40;91.10
49731;DHT22;35622;52.008;5.426;2024-02-28T14:07:18;14.40;90.70
49731;DHT22;35622;52.008;5.426;2024-02-28T14:09:43;14.30;90.50
49731;DHT22;35622;52.008;5.426;2024-02-28T14:12:10;14.30;91.00
49731;DHT22;35622;52.008;5.426;2024-02-28T14:14:35;14.30;90.80
49731;DHT22;35622;52.008;5.426;2024-02-28T14:17:01;14.40;91.10
49731;DHT22;35622;52.008;5.426;2024-02-28T14:19:27;14.50;91.10
49731;DHT22;35622;52.008;5.426;2024-02-28T14:21:52;14.30;90.70
49731;DHT22;35622;52.008;5.426;2024-02-28T14:24:18;14.10;91.70
49731;DHT22;35622;52.008;5.426;2024-02-28T14:26:45;14.00;91.40
49731;DHT22;35622;52.008;5.426;2024-02-28T14:29:11;14.00;91.80
49731;DHT22;35622;52.008;5.426;2024-02-28T14:31:37;13.80;91.90
49731;DHT22;35622;52.008;5.426;2024-02-28T14:34:02;14.00;91.60
49731;DHT22;35622;52.008;5.426;2024-02-28T14:36:30;13.80;91.80
49731;DHT22;35622;52.008;5.426;2024-02-28T14:38:56;14.00;92.20
49731;DHT22;35622;52.008;5.426;2024-02-28T14:41:22;13.90;92.10
49731;DHT22;35622;52.008;5.426;2024-02-28T14:43:48;14.00;92.30
49731;DHT22;35622;52.008;5.426;2024-02-28T14:46:14;13.90;91.80
49731;DHT22;35622;52.008;5.426;2024-02-28T14:48:42;13.80;92.00
49731;DHT22;35622;52.008;5.426;2024-02-28T14:51:08;13.60;92.40
49731;DHT22;35622;52.008;5.426;2024-02-28T14:53:34;13.70;92.30
49731;DHT22;35622;52.008;5.426;2024-02-28T14:56:00;13.80;92.30
49731;DHT22;35622;52.008;5.426;2024-02-28T14:58:25;13.80;92.30
49731;DHT22;35622;52.008;5.426;2024-02-28T15:00:51;13.80;92.40
49731;DHT22;35622;52.008;5.426;2024-02-28T15:03:17;13.70;91.80
49731;DHT22;35622;52.008;5.426;2024-02-28T15:05:42;13.40;92.40
49731;DHT22;35622;52.008;5.426;2024-02-28T15:08:10;13.00;92.70
49731;DHT22;35622;52.008;5.426;2024-02-28T15:10:36;13.00;93.30
49731;DHT22;35622;52.008;5.426;2024-02-28T15:13:01;13.10;93.40
49731;DHT22;35622;52.008;5.426;2024-02-28T15:15:27;13.30;93.20
49731;DHT22;35622;52.008;5.426;2024-02-28T15:17:53;13.40;92.60
49731;DHT22;35622;52.008;5.426;2024-02-28T15:20:19;13.00;93.10
49731;DHT22;35622;52.008;5.426;2024-02-28T15:22:45;13.10;93.40
49731;DHT22;35622;52.008;5.426;2024-02-28T15:25:11;13.10;93.50
49731;DHT22;35622;52.008;5.426;2024-02-28T15:27:37;12.90;93.60
49731;DHT22;35622;52.008;5.426;2024-02-28T15:30:03;13.10;93.30
49731;DHT22;35622;52.008;5.426;2024-02-28T15:32:30;13.10;93.30
49731;DHT22;35622;52.008;5.426;2024-02-28T15:34:57;13.10;93.40